Time;durP1;ratioP1;P1;durP2;ratioP2;P2;SDS_P1;SDS_P2;PMS_P1;PMS_P2;Temp;Humidity;BMP_temperature;BMP_pressure;BME280_temperature;BME280_humidity;BME280_pressure;Samples;Min_cycle;Max_cycle;Signal;HPM_P1;HPM_P2
2022/03/08 00:02:05;;;;;;;14.68;5.00;;;;;;;;;;10240406;28;20182;-71
2022/03/08 00:07:09;;;;;;;12.10;4.50;;;;;;;;;;10237714;28;20035;-72
2022/03/08 00:12:12;;;;;;;9.73;3.40;;;;;;;;;;10241375;28;20031;-72
2022/03/08 00:17:16;;;;;;;13.40;4.53;;;;;;;;;;10237589;28;20792;-70
2022/03/08 00:22:20;;;;;;;9.87;3.00;;;;;;;;;;10222624;28;20039;-70
2022/03/08 00:27:22;;;;;;;9.30;4.13;;;;;;;;;;10234254;28;20049;-71
2022/03/08 00:32:28;;;;;;;4.28;2.42;;;;;;;;;;10243041;28;20514;-70
2022/03/08 00:37:30;;;;;;;;;;;;;;;;;;10239027;28;20047;-71
2022/03/08 00:42:34;;;;;;;7.63;3.23;;;;;;;;;;10238446;28;19923;-70
2022/03/08 00:47:39;;;;;;;8.33;3.57;;;;;;;;;;10237173;28;20130;-71
2022/03/08 00:52:42;;;;;;;11.97;5.57;;;;;;;;;;10229854;28;20134;-72
2022/03/08 00:57:45;;;;;;;9.00;3.47;;;;;;;;;;10224257;28;20464;-71
2022/03/08 01:02:50;;;;;;;8.50;3.03;;;;;;;;;;10239096;28;20047;-72
2022/03/08 01:07:53;;;;;;;16.17;6.77;;;;;;;;;;10221448;28;20035;-71
2022/03/08 01:12:57;;;;;;;8.87;3.37;;;;;;;;;;10239254;28;20039;-71
2022/03/08 01:18:01;;;;;;;8.77;1.87;;;;;;;;;;10238006;28;20046;-71
2022/03/08 01:23:04;;;;;;;11.83;4.83;;;;;;;;;;10247403;23;20974;-65
2022/03/08 01:28:07;;;;;;;7.73;3.37;;;;;;;;;;10249728;28;20444;-67
2022/03/08 01:33:12;;;;;;;11.70;4.63;;;;;;;;;;10268806;28;20498;-65
2022/03/08 01:38:15;;;;;;;10.43;5.50;;;;;;;;;;10286845;28;20487;-67
2022/03/08 01:43:19;;;;;;;8.43;3.23;;;;;;;;;;10278952;28;20113;-67
2022/03/08 01:48:23;;;;;;;2.03;1.37;;;;;;;;;;10285238;28;20476;-67
2022/03/08 01:53:26;;;;;;;8.70;4.07;;;;;;;;;;10262271;28;20138;-66
2022/03/08 01:58:30;;;;;;;9.95;4.55;;;;;;;;;;10284631;28;20213;-67
2022/03/08 02:03:35;;;;;;;11.23;3.93;;;;;;;;;;10279148;28;20046;-68
2022/03/08 02:08:37;;;;;;;13.10;4.63;;;;;;;;;;10264892;28;20034;-66
2022/03/08 02:13:41;;;;;;;3.13;1.87;;;;;;;;;;10276232;28;20130;-65
2022/03/08 02:18:45;;;;;;;8.47;3.80;;;;;;;;;;10262947;28;20073;-66
2022/03/08 02:23:50;;;;;;;9.80;3.90;;;;;;;;;;10279746;28;20049;-67
2022/03/08 02:28:56;;;;;;;17.53;5.40;;;;;;;;;;10261513;28;20042;-66
2022/03/08 02:34:00;;;;;;;10.55;4.50;;;;;;;;;;10264419;28;20146;-65
2022/03/08 02:39:04;;;;;;;17.93;4.57;;;;;;;;;;10279614;28;20098;-66
2022/03/08 02:44:06;;;;;;;;;;;;;;;;;;10262666;28;20495;-66
2022/03/08 02:49:11;;;;;;;8.30;2.70;;;;;;;;;;10263976;28;20259;-66
2022/03/08 02:54:13;;;;;;;;;;;;;;;;;;10275768;28;20066;-67
2022/03/08 02:59:21;;;;;;;6.43;3.40;;;;;;;;;;10278143;28;19928;-67
2022/03/08 03:04:24;;;;;;;15.43;6.17;;;;;;;;;;10276057;28;20049;-67
2022/03/08 03:09:26;;;;;;;10.77;4.23;;;;;;;;;;10281348;28;20082;-66
2022/03/08 03:14:31;;;;;;;11.13;3.93;;;;;;;;;;10275732;28;20105;-66
2022/03/08 03:19:33;;;;;;;;;;;;;;;;;;10277903;28;20039;-66
2022/03/08 03:24:36;;;;;;;4.33;1.97;;;;;;;;;;10275901;28;19953;-65
2022/03/08 03:29:41;;;;;;;4.80;2.33;;;;;;;;;;10256596;28;20031;-64
2022/03/08 03:34:43;;;;;;;;;;;;;;;;;;10273449;28;20038;-65
2022/03/08 03:39:46;;;;;;;9.60;5.70;;;;;;;;;;10283210;28;19922;-65
2022/03/08 03:44:50;;;;;;;5.27;1.57;;;;;;;;;;10262132;28;20515;-65
2022/03/08 03:49:53;;;;;;;;;;;;;;;;;;10274643;28;20035;-67
2022/03/08 03:54:55;;;;;;;3.80;1.83;;;;;;;;;;10275101;28;19965;-67
2022/03/08 04:00:00;;;;;;;19.73;8.03;;;;;;;;;;10258961;28;20475;-67
2022/03/08 04:05:03;;;;;;;4.55;2.47;;;;;;;;;;10275765;28;20050;-64
2022/03/08 04:10:07;;;;;;;12.83;4.77;;;;;;;;;;10279292;28;20105;-65
2022/03/08 04:15:11;;;;;;;11.38;4.53;;;;;;;;;;10274188;28;20063;-67
2022/03/08 04:20:14;;;;;;;10.53;4.90;;;;;;;;;;10270588;28;20051;-66
2022/03/08 04:25:17;;;;;;;8.50;2.90;;;;;;;;;;10277345;28;20489;-66
2022/03/08 04:30:22;;;;;;;2.95;1.50;;;;;;;;;;10274698;28;20071;-67
2022/03/08 04:35:26;;;;;;;5.67;3.00;;;;;;;;;;10277418;28;20133;-67
2022/03/08 04:40:29;;;;;;;7.97;2.07;;;;;;;;;;10277500;28;20093;-66
2022/03/08 04:45:34;;;;;;;5.70;2.47;;;;;;;;;;10278670;28;20138;-67
2022/03/08 04:50:38;;;;;;;7.00;3.23;;;;;;;;;;10281522;28;20035;-67
2022/03/08 04:55:43;;;;;;;8.90;3.40;;;;;;;;;;10273845;28;20077;-67
2022/03/08 05:00:48;;;;;;;4.60;2.38;;;;;;;;;;10256890;28;20102;-65
2022/03/08 05:05:51;;;;;;;10.07;4.47;;;;;;;;;;10260169;28;20109;-68
2022/03/08 05:10:54;;;;;;;8.43;3.23;;;;;;;;;;10278077;28;20057;-66
2022/03/08 05:15:59;;;;;;;11.10;4.18;;;;;;;;;;10264488;28;20046;-66
2022/03/08 05:21:03;;;;;;;6.13;2.00;;;;;;;;;;10280872;28;20046;-66
2022/03/08 05:26:06;;;;;;;5.28;2.53;;;;;;;;;;10264959;28;20051;-66
2022/03/08 05:31:12;;;;;;;11.70;4.17;;;;;;;;;;10263688;28;20050;-67
2022/03/08 05:36:17;;;;;;;3.37;1.20;;;;;;;;;;10264899;28;20479;-66
2022/03/08 05:41:19;;;;;;;6.27;2.43;;;;;;;;;;10264600;28;20353;-67
2022/03/08 05:46:24;;;;;;;9.83;4.17;;;;;;;;;;10270575;28;20054;-66
2022/03/08 05:51:26;;;;;;;;;;;;;;;;;;10283557;28;20062;-67
2022/03/08 05:56:29;;;;;;;3.23;2.30;;;;;;;;;;10280280;28;19965;-67
2022/03/08 06:01:33;;;;;;;3.03;2.27;;;;;;;;;;10276217;28;20061;-63
2022/03/08 06:06:38;;;;;;;14.57;3.20;;;;;;;;;;10272980;28;20093;-68
2022/03/08 06:11:41;;;;;;;9.43;3.07;;;;;;;;;;10279345;28;21007;-67
2022/03/08 06:16:45;;;;;;;6.40;2.87;;;;;;;;;;10282454;28;20038;-65
2022/03/08 06:21:48;;;;;;;;;;;;;;;;;;10278689;28;20047;-66
2022/03/08 06:26:51;;;;;;;10.33;4.13;;;;;;;;;;10264613;28;19930;-66
2022/03/08 06:31:55;;;;;;;8.80;3.40;;;;;;;;;;10280824;28;20464;-68
2022/03/08 06:36:57;;;;;;;;;;;;;;;;;;10263223;28;20053;-67
2022/03/08 06:42:00;;;;;;;4.77;2.40;;;;;;;;;;10279869;28;19976;-67
2022/03/08 06:47:05;;;;;;;8.43;4.30;;;;;;;;;;10276856;28;20060;-65
2022/03/08 06:52:09;;;;;;;11.63;3.17;;;;;;;;;;10262832;28;20037;-64
2022/03/08 06:57:12;;;;;;;9.17;2.83;;;;;;;;;;10268035;28;20324;-66
2022/03/08 07:02:17;;;;;;;9.88;3.72;;;;;;;;;;10259748;28;20541;-65
2022/03/08 07:07:20;;;;;;;14.20;4.37;;;;;;;;;;10265332;28;20039;-66
2022/03/08 07:12:24;;;;;;;12.27;4.43;;;;;;;;;;10279039;28;20035;-65
2022/03/08 07:17:26;;;;;;;;;;;;;;;;;;10278183;28;20495;-66
2022/03/08 07:22:32;;;;;;;8.23;3.50;;;;;;;;;;10262751;28;20224;-67
2022/03/08 07:27:35;;;;;;;7.30;3.43;;;;;;;;;;10281091;23;20496;-69
2022/03/08 07:32:38;;;;;;;8.93;4.23;;;;;;;;;;10259039;28;20051;-67
2022/03/08 07:37:40;;;;;;;;;;;;;;;;;;10284204;28;20066;-70
2022/03/08 07:42:43;;;;;;;;;;;;;;;;;;10264678;28;19926;-71
2022/03/08 07:47:48;;;;;;;14.32;6.38;;;;;;;;;;10264773;28;20461;-71
2022/03/08 07:52:50;;;;;;;;;;;;;;;;;;10267081;28;20042;-68
2022/03/08 07:57:54;;;;;;;15.57;6.72;;;;;;;;;;10283043;28;19973;-70
2022/03/08 08:03:06;;;;;;;15.50;7.38;;;;;;;;;;10261996;28;20045;-69
2022/03/08 08:08:10;;;;;;;12.18;6.80;;;;;;;;;;10266367;28;20097;-71
2022/03/08 08:13:13;;;;;;;14.60;7.53;;;;;;;;;;10283550;28;20427;-71
2022/03/08 08:18:17;;;;;;;7.80;4.15;;;;;;;;;;10264122;28;20039;-72
2022/03/08 08:23:20;;;;;;;12.52;6.53;;;;;;;;;;10280086;28;20407;-71
2022/03/08 08:28:22;;;;;;;14.75;6.93;;;;;;;;;;10283325;28;20491;-70
2022/03/08 08:33:27;;;;;;;17.67;7.68;;;;;;;;;;10266784;28;20074;-71
2022/03/08 08:38:31;;;;;;;12.07;6.75;;;;;;;;;;10284534;28;20038;-69
2022/03/08 08:43:34;;;;;;;12.48;7.10;;;;;;;;;;10264716;28;20046;-72
2022/03/08 08:48:38;;;;;;;12.38;7.15;;;;;;;;;;10263867;28;20043;-71
2022/03/08 08:53:40;;;;;;;11.88;7.57;;;;;;;;;;10260911;28;20069;-72
2022/03/08 08:58:43;;;;;;;;;;;;;;;;;;10281669;28;20097;-70
2022/03/08 09:03:48;;;;;;;12.40;7.25;;;;;;;;;;10264750;28;19926;-73
2022/03/08 09:08:51;;;;;;;11.23;5.95;;;;;;;;;;10282915;28;20039;-72
2022/03/08 09:13:56;;;;;;;10.20;5.50;;;;;;;;;;10283586;28;20046;-71
2022/03/08 09:19:01;;;;;;;9.70;5.78;;;;;;;;;;10264352;28;20039;-71
2022/03/08 09:24:04;;;;;;;6.40;3.75;;;;;;;;;;10284034;28;20043;-72
2022/03/08 09:29:08;;;;;;;10.80;6.30;;;;;;;;;;10267403;28;20038;-72
2022/03/08 09:34:10;;;;;;;;;;;;;;;;;;10265234;28;20113;-72
2022/03/08 09:39:15;;;;;;;9.32;4.95;;;;;;;;;;10282690;28;19922;-72
2022/03/08 09:44:20;;;;;;;11.27;5.53;;;;;;;;;;10279562;28;20038;-72
2022/03/08 09:49:23;;;;;;;8.32;4.80;;;;;;;;;;10281343;28;20039;-69
2022/03/08 09:54:25;;;;;;;;;;;;;;;;;;10265016;28;20078;-72
2022/03/08 09:59:30;;;;;;;7.50;4.07;;;;;;;;;;10290433;28;19929;-71
2022/03/08 10:04:37;;;;;;;5.63;3.90;;;;;;;;;;10271606;28;20309;-71
2022/03/08 10:10:00;;;;;;;;;;;;;;;;;;10269418;28;20031;-74
2022/03/08 10:15:19;;;;;;;9.18;4.25;;;;;;;;;;10281934;28;20030;-71
2022/03/08 10:20:30;;;;;;;8.45;4.00;;;;;;;;;;10287299;28;20091;-71
2022/03/08 10:25:33;;;;;;;8.63;4.40;;;;;;;;;;10287081;28;20495;-70
2022/03/08 10:30:51;;;;;;;7.88;4.75;;;;;;;;;;10287367;28;20399;-71
2022/03/08 10:35:54;;;;;;;5.68;3.45;;;;;;;;;;10284455;28;20043;-70
2022/03/08 10:40:57;;;;;;;6.80;3.55;;;;;;;;;;10269330;28;20042;-71
2022/03/08 10:46:03;;;;;;;7.75;6.30;;;;;;;;;;10287572;28;20125;-71
2022/03/08 10:51:05;;;;;;;;;;;;;;;;;;10268023;28;20026;-70
2022/03/08 10:56:09;;;;;;;8.90;4.88;;;;;;;;;;10269181;28;19961;-72
2022/03/08 11:01:13;;;;;;;7.07;4.45;;;;;;;;;;10279491;28;20405;-72
2022/03/08 11:06:16;;;;;;;5.70;3.70;;;;;;;;;;10263788;28;20523;-71
2022/03/08 11:11:19;;;;;;;;;;;;;;;;;;10267243;28;20038;-71
2022/03/08 11:16:23;;;;;;;6.50;3.95;;;;;;;;;;10282258;28;19930;-71
2022/03/08 11:21:26;;;;;;;;;;;;;;;;;;10268355;28;20055;-70
2022/03/08 11:26:29;;;;;;;6.38;3.53;;;;;;;;;;10265972;28;19972;-72
2022/03/08 11:31:32;;;;;;;;;;;;;;;;;;10281133;28;20034;-71
2022/03/08 11:36:38;;;;;;;4.53;3.25;;;;;;;;;;10267716;28;20056;-71
2022/03/08 11:41:41;;;;;;;6.82;4.07;;;;;;;;;;10284120;28;20085;-70
2022/03/08 11:46:58;;;;;;;3.83;2.70;;;;;;;;;;10268972;28;20047;-70
2022/03/08 11:52:12;;;;;;;5.45;3.40;;;;;;;;;;10282786;28;20054;-72
2022/03/08 11:57:18;;;;;;;6.38;4.22;;;;;;;;;;10277406;28;20043;-72
2022/03/08 12:02:22;;;;;;;11.63;7.32;;;;;;;;;;10280100;28;20087;-72
2022/03/08 12:07:27;;;;;;;22.52;10.35;;;;;;;;;;10265817;28;20180;-72
2022/03/08 12:12:30;;;;;;;11.02;6.30;;;;;;;;;;10264854;28;20058;-71
2022/03/08 12:17:33;;;;;;;10.75;5.78;;;;;;;;;;10282293;28;20122;-72
2022/03/08 12:22:36;;;;;;;;;;;;;;;;;;10265362;28;20058;-72
2022/03/08 12:27:51;;;;;;;9.00;5.00;;;;;;;;;;10258954;28;20077;-70
2022/03/08 12:32:57;;;;;;;7.53;4.70;;;;;;;;;;10280019;28;20042;-71
2022/03/08 12:38:02;;;;;;;9.82;5.32;;;;;;;;;;10280189;28;20053;-69
2022/03/08 12:43:08;;;;;;;6.97;4.85;;;;;;;;;;10280123;28;20047;-70
2022/03/08 12:48:18;;;;;;;8.02;5.13;;;;;;;;;;10261577;28;20042;-71
2022/03/08 12:53:24;;;;;;;;;;;;;;;;;;10264941;28;20116;-69
2022/03/08 12:58:26;;;;;;;;;;;;;;;;;;10264160;28;19957;-71
2022/03/08 13:03:29;;;;;;;;;;;;;;;;;;10264355;28;20294;-71
2022/03/08 13:08:32;;;;;;;;;;;;;;;;;;10280546;28;19926;-71
2022/03/08 13:13:35;;;;;;;;;;;;;;;;;;10264311;28;19934;-71
2022/03/08 13:18:40;;;;;;;7.35;4.68;;;;;;;;;;10278423;28;20036;-71
2022/03/08 13:23:45;;;;;;;10.25;5.13;;;;;;;;;;10286093;28;20043;-71
2022/03/08 13:28:50;;;;;;;10.32;4.90;;;;;;;;;;10270620;23;20126;-71
2022/03/08 13:33:55;;;;;;;8.20;4.97;;;;;;;;;;10286998;28;20063;-71
2022/03/08 13:38:59;;;;;;;8.15;4.10;;;;;;;;;;10264366;28;20054;-70
2022/03/08 13:44:02;;;;;;;7.35;4.28;;;;;;;;;;10285488;28;20038;-72
2022/03/08 13:49:08;;;;;;;7.97;3.78;;;;;;;;;;10285822;28;20380;-70
2022/03/08 13:54:11;;;;;;;9.32;4.00;;;;;;;;;;10275633;28;20046;-73
2022/03/08 13:59:25;;;;;;;6.28;2.70;;;;;;;;;;10287162;28;20050;-71
2022/03/08 14:04:29;;;;;;;;;;;;;;;;;;10286001;28;20752;-72
2022/03/08 14:09:31;;;;;;;;;;;;;;;;;;10300408;28;19986;-71
2022/03/08 14:14:34;;;;;;;;;;;;;;;;;;10295071;28;20309;-72
2022/03/08 14:19:37;;;;;;;;;;;;;;;;;;10272158;28;19945;-70
2022/03/08 14:24:42;;;;;;;15.18;3.90;;;;;;;;;;10264879;28;19946;-70
2022/03/08 14:29:59;;;;;;;7.07;3.13;;;;;;;;;;10265761;28;20093;-71
2022/03/08 14:35:02;;;;;;;;;;;;;;;;;;10280053;28;20038;-71
2022/03/08 14:40:05;;;;;;;;;;;;;;;;;;10276494;28;19922;-70
2022/03/08 14:45:11;;;;;;;;;;;;;;;;;;10268475;28;19953;-71
2022/03/08 14:50:14;;;;;;;;;;;;;;;;;;10267276;28;19933;-71
2022/03/08 14:55:16;;;;;;;;;;;;;;;;;;10274182;28;19930;-70
2022/03/08 15:00:27;;;;;;;;;;;;;;;;;;10261837;28;19929;-71
2022/03/08 15:05:32;;;;;;;;;;;;;;;;;;10273345;28;19922;-71
2022/03/08 15:10:37;;;;;;;7.30;2.90;;;;;;;;;;10280825;28;19922;-71
2022/03/08 15:15:40;;;;;;;5.10;2.25;;;;;;;;;;10278675;28;20483;-71
2022/03/08 15:20:43;;;;;;;9.25;3.17;;;;;;;;;;10277392;28;20687;-70
2022/03/08 15:25:46;;;;;;;;;;;;;;;;;;10266007;28;20058;-70
2022/03/08 15:30:52;;;;;;;10.50;3.58;;;;;;;;;;10280731;28;19922;-70
2022/03/08 15:35:55;;;;;;;10.80;3.50;;;;;;;;;;10260289;28;20078;-71
2022/03/08 15:40:59;;;;;;;;;;;;;;;;;;10261667;28;20050;-72
2022/03/08 15:46:05;;;;;;;6.93;3.03;;;;;;;;;;10280431;28;20305;-71
2022/03/08 15:51:09;;;;;;;8.00;3.20;;;;;;;;;;10278987;28;20515;-70
2022/03/08 15:56:12;;;;;;;8.30;3.50;;;;;;;;;;10274673;28;20122;-70
2022/03/08 16:01:14;;;;;;;;;;;;;;;;;;10249071;28;20635;-71
2022/03/08 16:06:18;;;;;;;;;;;;;;;;;;10276839;28;19930;-71
2022/03/08 16:11:21;;;;;;;;;;;;;;;;;;10266666;28;20300;-71
2022/03/08 16:16:23;;;;;;;;;;;;;;;;;;10275880;28;19976;-70
2022/03/08 16:21:27;;;;;;;;;;;;;;;;;;10254857;28;19933;-70
2022/03/08 16:26:32;;;;;;;4.95;1.77;;;;;;;;;;10254152;28;19941;-70
2022/03/08 16:31:35;;;;;;;;;;;;;;;;;;10287254;28;20038;-70
2022/03/08 16:36:37;;;;;;;10.65;3.28;;;;;;;;;;10262970;28;19996;-71
2022/03/08 16:41:40;;;;;;;;;;;;;;;;;;10257612;28;20039;-71
2022/03/08 16:46:43;;;;;;;;;;;;;;;;;;10278479;28;19926;-71
2022/03/08 16:51:45;;;;;;;;;;;;;;;;;;10276407;28;19922;-70
2022/03/08 16:56:48;;;;;;;;;;;;;;;;;;10273599;28;20330;-72
2022/03/08 17:01:51;;;;;;;;;;;;;;;;;;10264376;28;19922;-70
2022/03/08 17:06:54;;;;;;;;;;;;;;;;;;10262975;28;19922;-71
2022/03/08 17:12:00;;;;;;;9.02;3.10;;;;;;;;;;10270015;28;19933;-71
2022/03/08 17:17:03;;;;;;;6.85;3.35;;;;;;;;;;10271347;28;20035;-69
2022/03/08 17:22:07;;;;;;;4.75;2.30;;;;;;;;;;10260379;28;20525;-70
2022/03/08 17:27:12;;;;;;;6.73;2.43;;;;;;;;;;10264313;28;20086;-70
2022/03/08 17:32:15;;;;;;;12.50;4.07;;;;;;;;;;10261630;28;20043;-71
2022/03/08 17:37:18;;;;;;;3.77;2.10;;;;;;;;;;10266722;28;20348;-72
2022/03/08 17:42:24;;;;;;;6.63;2.67;;;;;;;;;;10264032;28;20406;-71
2022/03/08 17:47:27;;;;;;;;;;;;;;;;;;10275027;28;20586;-70
2022/03/08 17:52:31;;;;;;;5.10;2.43;;;;;;;;;;10269861;28;19961;-71
2022/03/08 17:57:38;;;;;;;7.60;3.20;;;;;;;;;;10281908;28;20868;-71
2022/03/08 18:02:41;;;;;;;6.30;3.00;;;;;;;;;;10273288;28;20507;-72
2022/03/08 18:07:49;;;;;;;8.67;3.10;;;;;;;;;;10267970;28;20043;-72
2022/03/08 18:12:53;;;;;;;16.23;4.83;;;;;;;;;;10267977;28;20042;-73
2022/03/08 18:17:57;;;;;;;8.07;3.17;;;;;;;;;;10283278;28;20571;-71
2022/03/08 18:23:00;;;;;;;5.73;2.93;;;;;;;;;;10264875;28;20588;-71
2022/03/08 18:28:05;;;;;;;7.00;3.40;;;;;;;;;;10286590;28;20042;-72
2022/03/08 18:33:09;;;;;;;;;;;;;;;;;;10272401;28;20606;-70
2022/03/08 18:38:11;;;;;;;;;;;;;;;;;;10278977;28;19933;-71
2022/03/08 18:43:14;;;;;;;;;;;;;;;;;;10289610;28;19922;-71
2022/03/08 18:48:18;;;;;;;7.53;3.03;;;;;;;;;;10270522;28;19932;-71
2022/03/08 18:53:22;;;;;;;9.10;3.10;;;;;;;;;;10291560;28;20077;-71
2022/03/08 18:58:25;;;;;;;7.18;3.20;;;;;;;;;;10280846;28;20085;-70
2022/03/08 19:03:30;;;;;;;7.70;3.17;;;;;;;;;;10278546;28;20066;-72
2022/03/08 19:08:35;;;;;;;11.00;3.40;;;;;;;;;;10263302;28;20058;-70
2022/03/08 19:13:38;;;;;;;7.23;2.77;;;;;;;;;;10267782;28;20046;-71
2022/03/08 19:18:47;;;;;;;9.17;3.40;;;;;;;;;;10269864;28;20046;-71
2022/03/08 19:23:50;;;;;;;10.50;2.47;;;;;;;;;;10274345;28;20027;-71
2022/03/08 19:28:55;;;;;;;10.83;3.17;;;;;;;;;;10285144;28;20058;-69
2022/03/08 19:34:00;;;;;;;7.03;2.55;;;;;;;;;;10292501;28;20035;-70
2022/03/08 19:39:03;;;;;;;;;;;;;;;;;;10283930;28;20419;-69
2022/03/08 19:44:06;;;;;;;8.43;3.60;;;;;;;;;;10282273;23;19922;-71
2022/03/08 19:49:11;;;;;;;12.83;3.20;;;;;;;;;;10226459;28;20408;-71
2022/03/08 19:54:18;;;;;;;12.37;3.43;;;;;;;;;;10242681;28;20391;-71
2022/03/08 19:59:21;;;;;;;9.97;3.63;;;;;;;;;;10226110;28;20034;-73
2022/03/08 20:04:30;;;;;;;3.40;1.80;;;;;;;;;;10229032;28;20039;-73
2022/03/08 20:09:33;;;;;;;8.07;3.47;;;;;;;;;;10243549;28;20559;-73
2022/03/08 20:14:37;;;;;;;6.85;3.17;;;;;;;;;;10242803;28;20118;-71
2022/03/08 20:19:42;;;;;;;10.97;3.67;;;;;;;;;;10238607;28;20110;-73
2022/03/08 20:24:45;;;;;;;8.90;3.00;;;;;;;;;;10241598;28;20050;-73
2022/03/08 20:29:48;;;;;;;3.97;1.60;;;;;;;;;;10246524;28;21442;-72
2022/03/08 20:34:53;;;;;;;5.73;2.67;;;;;;;;;;10260741;28;20562;-73
2022/03/08 20:39:56;;;;;;;9.70;3.67;;;;;;;;;;10242312;28;20042;-72
2022/03/08 20:44:59;;;;;;;9.57;3.93;;;;;;;;;;10238882;28;20047;-72
2022/03/08 20:50:04;;;;;;;9.70;3.47;;;;;;;;;;10246309;28;20039;-70
2022/03/08 20:55:09;;;;;;;8.43;3.93;;;;;;;;;;10233847;28;20031;-72
2022/03/08 21:00:13;;;;;;;7.57;2.75;;;;;;;;;;10241572;28;20135;-71
2022/03/08 21:05:17;;;;;;;6.72;2.92;;;;;;;;;;10236830;28;20115;-72
2022/03/08 21:10:23;;;;;;;8.40;3.30;;;;;;;;;;10235982;29;20396;-73
2022/03/08 21:15:26;;;;;;;6.47;2.50;;;;;;;;;;10230886;29;20078;-72
2022/03/08 21:20:30;;;;;;;10.53;3.43;;;;;;;;;;10228734;29;20039;-72
2022/03/08 21:25:34;;;;;;;;;;;;;;;;;;10242016;29;20407;-72
2022/03/08 21:30:37;;;;;;;7.23;3.23;;;;;;;;;;10225183;29;20029;-71
2022/03/08 21:35:42;;;;;;;10.13;2.47;;;;;;;;;;10229932;28;20098;-71
2022/03/08 21:40:47;;;;;;;4.53;2.00;;;;;;;;;;10220947;29;20118;-71
2022/03/08 21:45:50;;;;;;;2.13;1.40;;;;;;;;;;10225652;29;20110;-71
2022/03/08 21:50:56;;;;;;;10.13;3.60;;;;;;;;;;10245105;28;20043;-71
2022/03/08 21:55:59;;;;;;;10.13;3.60;;;;;;;;;;10235384;29;20039;-71
2022/03/08 22:01:03;;;;;;;6.40;2.88;;;;;;;;;;10243391;28;20122;-71
2022/03/08 22:06:07;;;;;;;11.40;3.10;;;;;;;;;;10232809;29;20043;-72
2022/03/08 22:11:12;;;;;;;5.90;2.53;;;;;;;;;;10254688;28;20479;-71
2022/03/08 22:16:16;;;;;;;10.23;3.00;;;;;;;;;;10232295;29;20099;-72
2022/03/08 22:21:20;;;;;;;4.53;2.70;;;;;;;;;;10250146;28;20046;-70
2022/03/08 22:26:23;;;;;;;7.43;3.30;;;;;;;;;;10248054;29;20035;-72
2022/03/08 22:31:28;;;;;;;6.07;2.93;;;;;;;;;;10234435;28;20046;-72
2022/03/08 22:36:34;;;;;;;10.90;3.60;;;;;;;;;;10249584;28;20039;-71
2022/03/08 22:41:37;;;;;;;6.53;2.93;;;;;;;;;;10245647;28;20047;-72
2022/03/08 22:46:40;;;;;;;9.07;3.50;;;;;;;;;;10248447;29;20050;-73
2022/03/08 22:51:53;;;;;;;4.30;1.80;;;;;;;;;;10246321;28;20517;-73
2022/03/08 22:56:57;;;;;;;4.33;2.20;;;;;;;;;;10229353;29;20102;-71
2022/03/08 23:02:19;;;;;;;1.13;0.70;;;;;;;;;;10230912;28;20090;-72
2022/03/08 23:07:25;;;;;;;3.60;2.10;;;;;;;;;;10244242;29;20047;-71
2022/03/08 23:12:28;;;;;;;6.30;2.60;;;;;;;;;;10229585;28;20040;-72
2022/03/08 23:17:31;;;;;;;4.40;2.33;;;;;;;;;;10228170;29;20039;-71
2022/03/08 23:22:35;;;;;;;6.73;3.17;;;;;;;;;;10243428;28;20050;-71
2022/03/08 23:27:39;;;;;;;6.40;2.90;;;;;;;;;;10229527;29;20098;-71
2022/03/08 23:32:42;;;;;;;1.10;0.80;;;;;;;;;;10243924;28;20518;-71
2022/03/08 23:37:47;;;;;;;9.57;2.80;;;;;;;;;;10231832;29;20039;-72
2022/03/08 23:42:52;;;;;;;5.30;2.23;;;;;;;;;;10242023;28;20046;-72
2022/03/08 23:47:55;;;;;;;7.57;2.87;;;;;;;;;;10244365;28;20067;-72
2022/03/08 23:53:00;;;;;;;11.40;3.30;;;;;;;;;;10241911;28;20051;-71
2022/03/08 23:58:05;;;;;;;7.60;3.27;;;;;;;;;;10234497;28;20098;-73
